createdAt,value
2019-04-07T00:00:55.373Z,80.25
2019-04-07T00:03:27.817Z,80.43
2019-04-07T00:05:59.846Z,80.55
2019-04-07T00:08:31.745Z,80.68
2019-04-07T00:11:04.651Z,80.78
2019-04-07T00:13:36.692Z,80.83
2019-04-07T00:16:09.783Z,80.74
2019-04-07T00:18:41.751Z,80.62
2019-04-07T00:21:13.725Z,80.93
2019-04-07T00:23:45.659Z,81.18
2019-04-07T00:26:17.593Z,81.05
2019-04-07T00:28:49.847Z,80.93
2019-04-07T00:31:21.805Z,81.13
2019-04-07T00:33:53.719Z,81.21
2019-04-07T00:36:25.851Z,81.33
2019-04-07T00:38:57.779Z,81.42
2019-04-07T00:41:29.976Z,81.54
2019-04-07T00:44:02.912Z,81.71
2019-04-07T00:46:35.538Z,81.85
2019-04-07T00:49:08.317Z,81.93
2019-04-07T00:51:41.013Z,82.07
2019-04-07T00:54:13.223Z,82.21
2019-04-07T00:56:45.508Z,82.37
2019-04-07T00:59:18.229Z,82.46
2019-04-07T01:01:50.416Z,82.68
2019-04-07T01:04:22.709Z,82.86
2019-04-07T01:06:54.859Z,83.32
2019-04-07T01:09:26.890Z,83.53
2019-04-07T01:11:58.824Z,83.57
2019-04-07T01:14:31.325Z,83.62
2019-04-07T01:17:04.296Z,83.66
2019-04-07T01:19:36.636Z,83.86
2019-04-07T01:22:09.040Z,84.00
2019-04-07T01:24:41.054Z,84.14
2019-04-07T01:27:13.163Z,84.23
2019-04-07T01:29:46.246Z,84.35
2019-04-07T01:32:19.206Z,84.48
2019-04-07T01:34:51.525Z,84.56
2019-04-07T01:37:24.092Z,84.63
2019-04-07T01:39:56.206Z,84.63
2019-04-07T01:42:33.656Z,84.62
2019-04-07T01:45:31.921Z,84.66
2019-04-07T01:48:25.736Z,84.75
2019-04-07T01:51:16.868Z,84.75
2019-04-07T01:54:13.944Z,84.76
2019-04-07T01:57:04.503Z,84.76
2019-04-07T01:59:58.224Z,84.76
2019-04-07T02:02:49.433Z,84.82
2019-04-07T02:05:39.227Z,84.88
2019-04-07T02:08:22.105Z,84.97
2019-04-07T02:11:15.818Z,84.41
2019-04-07T02:14:10.172Z,83.64
2019-04-07T02:16:49.994Z,83.03
2019-04-07T02:19:47.155Z,82.56
2019-04-07T02:22:40.910Z,82.54
2019-04-07T02:25:31.868Z,82.54
2019-04-07T02:28:28.514Z,82.58
2019-04-07T02:31:27.469Z,82.42
2019-04-07T02:34:25.935Z,82.13
2019-04-07T02:37:22.890Z,81.79
2019-04-07T02:40:05.137Z,81.61
2019-04-07T02:42:48.419Z,81.70
2019-04-07T02:45:30.378Z,81.20
2019-04-07T02:48:15.356Z,81.38
2019-04-07T02:51:03.149Z,81.56
2019-04-07T02:53:45.472Z,81.59
2019-04-07T02:56:33.800Z,81.42
2019-04-07T02:59:10.756Z,81.75
2019-04-07T03:02:08.163Z,81.88
2019-04-07T03:05:04.797Z,82.00
2019-04-07T03:07:58.296Z,81.98
2019-04-07T03:10:47.531Z,81.90
2019-04-07T03:13:41.925Z,81.56
2019-04-07T03:16:25.316Z,81.34
2019-04-07T03:19:11.306Z,81.09
2019-04-07T03:22:11.216Z,80.72
2019-04-07T03:25:09.935Z,80.40
2019-04-07T03:27:51.366Z,80.17
2019-04-07T03:30:38.569Z,79.90
2019-04-07T03:33:22.748Z,79.99
2019-04-07T03:36:06.829Z,79.85
2019-04-07T03:38:59.439Z,79.17
2019-04-07T03:41:59.026Z,78.99
2019-04-07T03:44:53.278Z,78.76
2019-04-07T03:47:42.429Z,79.20
2019-04-07T03:50:51.557Z,79.70
2019-04-07T03:53:42.583Z,79.83
2019-04-07T03:56:37.197Z,80.12
2019-04-07T03:59:26.923Z,80.32
2019-04-07T04:02:12.308Z,80.47
2019-04-07T04:04:55.644Z,80.55
2019-04-07T04:07:49.514Z,80.54
2019-04-07T04:10:40.802Z,80.41
2019-04-07T04:13:37.935Z,80.72
2019-04-07T04:16:19.983Z,80.91
2019-04-07T04:18:52.624Z,80.90
2019-04-07T04:21:24.517Z,81.08
2019-04-07T04:23:57.621Z,80.92
2019-04-07T04:26:29.779Z,80.84
2019-04-07T04:29:03.681Z,80.98
2019-04-07T04:31:36.771Z,81.19
2019-04-07T04:34:09.832Z,81.22
2019-04-07T04:36:41.929Z,81.42
2019-04-07T04:39:18.605Z,81.55
2019-04-07T04:41:48.892Z,81.84
2019-04-07T04:44:22.441Z,81.76
2019-04-07T04:46:54.840Z,81.64
2019-04-07T04:49:27.106Z,81.44
2019-04-07T04:51:59.065Z,81.15
2019-04-07T04:54:31.900Z,81.16
2019-04-07T04:57:06.452Z,81.05
2019-04-07T04:59:37.543Z,81.20
2019-04-07T05:02:10.600Z,81.36
2019-04-07T05:04:44.704Z,81.49
2019-04-07T05:07:17.054Z,81.57
2019-04-07T05:09:52.874Z,81.67
2019-04-07T05:12:23.472Z,81.38
2019-04-07T05:14:55.966Z,81.47
2019-04-07T05:17:28.821Z,81.64
2019-04-07T05:20:01.169Z,81.78
2019-04-07T05:22:33.369Z,81.53
2019-04-07T05:25:06.887Z,81.33
2019-04-07T05:27:39.234Z,80.97
2019-04-07T05:30:12.319Z,80.93
2019-04-07T05:32:44.851Z,80.79
2019-04-07T05:35:17.486Z,80.72
2019-04-07T05:37:59.964Z,80.65
2019-04-07T05:40:23.191Z,80.73
2019-04-07T05:42:55.516Z,80.83
2019-04-07T05:45:27.977Z,81.07
2019-04-07T05:48:00.420Z,81.21
2019-04-07T05:50:32.661Z,81.26
2019-04-07T05:53:06.836Z,81.20
2019-04-07T05:55:39.359Z,81.05
2019-04-07T05:58:11.980Z,80.91
2019-04-07T06:00:47.021Z,80.84
2019-04-07T06:03:20.355Z,80.96
2019-04-07T06:05:52.869Z,81.26
2019-04-07T06:08:34.039Z,81.53
2019-04-07T06:11:01.544Z,81.59
2019-04-07T06:13:35.600Z,81.72
2019-04-07T06:16:08.024Z,82.08
2019-04-07T06:18:40.031Z,82.74
2019-04-07T06:21:14.148Z,83.27
2019-04-07T06:23:45.581Z,83.63
2019-04-07T06:26:17.719Z,83.90
2019-04-07T06:28:54.619Z,83.93
2019-04-07T06:31:26.319Z,84.10
2019-04-07T06:33:59.487Z,84.29
2019-04-07T06:36:31.995Z,84.42
2019-04-07T06:39:07.192Z,84.56
2019-04-07T06:41:39.339Z,84.54
2019-04-07T06:44:13.812Z,84.57
2019-04-07T06:47:10.003Z,84.51
2019-04-07T06:50:07.413Z,84.36
2019-04-07T06:52:56.919Z,84.28
2019-04-07T06:55:37.014Z,84.19
2019-04-07T06:58:24.278Z,84.00
2019-04-07T07:01:15.385Z,83.93
2019-04-07T07:04:09.264Z,83.73
2019-04-07T07:07:00.524Z,83.38
2019-04-07T07:10:00.974Z,83.04
2019-04-07T07:13:09.334Z,82.92
2019-04-07T07:15:57.309Z,82.68
2019-04-07T07:18:40.911Z,82.51
2019-04-07T07:21:36.336Z,82.29
2019-04-07T07:24:06.180Z,82.09
2019-04-07T07:26:38.573Z,81.84
2019-04-07T07:29:13.243Z,81.47
2019-04-07T07:31:44.867Z,81.14
2019-04-07T07:34:18.727Z,80.70
2019-04-07T07:36:53.435Z,80.18
2019-04-07T07:39:25.123Z,79.69
2019-04-07T07:41:57.078Z,79.53
2019-04-07T07:44:28.999Z,79.14
2019-04-07T07:47:01.555Z,78.84
2019-04-07T07:49:36.112Z,78.85
2019-04-07T07:52:07.512Z,78.55
2019-04-07T07:54:39.477Z,77.98
2019-04-07T07:57:11.421Z,77.13
2019-04-07T07:59:44.044Z,76.61
2019-04-07T08:02:19.440Z,75.29
2019-04-07T08:04:51.077Z,74.49
2019-04-07T08:07:23.643Z,74.21
2019-04-07T08:09:56.813Z,74.64
2019-04-07T08:12:34.435Z,75.16
2019-04-07T08:15:04.946Z,75.01
2019-04-07T08:17:37.665Z,73.82
2019-04-07T08:20:11.367Z,73.22
2019-04-07T08:22:44.983Z,72.19
2019-04-07T08:25:20.394Z,70.51
2019-04-07T08:27:50.907Z,70.63
2019-04-07T08:30:22.963Z,71.37
2019-04-07T08:32:57.644Z,71.95
2019-04-07T08:35:28.882Z,72.33
2019-04-07T08:38:01.476Z,72.61
2019-04-07T08:40:36.532Z,72.40
2019-04-07T08:43:08.261Z,72.99
2019-04-07T08:45:41.434Z,73.20
2019-04-07T08:48:13.411Z,72.92
2019-04-07T08:50:45.372Z,72.76
2019-04-07T08:53:17.346Z,72.89
2019-04-07T08:55:52.029Z,73.47
2019-04-07T08:58:28.431Z,72.90
2019-04-07T09:00:58.538Z,71.73
2019-04-07T09:03:31.408Z,71.26
2019-04-07T09:06:04.576Z,72.02
2019-04-07T09:08:38.002Z,72.70
2019-04-07T09:11:13.511Z,72.79
2019-04-07T09:13:51.547Z,72.10
2019-04-07T09:16:57.839Z,70.98
2019-04-07T09:20:00.762Z,69.98
2019-04-07T09:22:38.920Z,68.54
2019-04-07T09:25:31.965Z,67.54
2019-04-07T09:28:25.437Z,66.76
2019-04-07T09:31:25.607Z,66.97
2019-04-07T09:34:18.901Z,68.42
2019-04-07T09:36:57.515Z,68.53
2019-04-07T09:39:58.447Z,66.49
2019-04-07T09:42:47.226Z,64.94
2019-04-07T09:45:39.420Z,64.43
2019-04-07T09:48:50.038Z,64.04
2019-04-07T09:51:41.351Z,64.53
2019-04-07T09:54:30.658Z,64.14
2019-04-07T09:57:35.484Z,64.42
2019-04-07T10:00:17.077Z,63.70
2019-04-07T10:03:26.313Z,64.56
2019-04-07T10:06:09.859Z,64.79
2019-04-07T10:09:04.078Z,64.73
2019-04-07T10:12:04.866Z,64.24
2019-04-07T10:14:55.269Z,64.61
2019-04-07T10:17:45.176Z,63.47
2019-04-07T10:20:35.223Z,63.09
2019-04-07T10:23:23.166Z,62.90
2019-04-07T10:26:23.379Z,63.58
2019-04-07T10:29:00.613Z,63.75
2019-04-07T10:31:55.343Z,64.58
2019-04-07T10:34:55.475Z,65.57
2019-04-07T10:37:45.130Z,66.77
2019-04-07T10:40:40.043Z,67.70
2019-04-07T10:43:20.031Z,67.12
2019-04-07T10:46:13.639Z,66.93
2019-04-07T10:48:53.662Z,67.18
2019-04-07T10:51:51.277Z,66.51
2019-04-07T10:54:41.528Z,66.01
2019-04-07T10:57:24.869Z,66.01
2019-04-07T11:00:27.823Z,64.87
2019-04-07T11:03:23.114Z,64.70
2019-04-07T11:06:14.954Z,64.95
2019-04-07T11:09:17.876Z,64.45
2019-04-07T11:12:12.441Z,64.61
2019-04-07T11:15:03.210Z,65.56
2019-04-07T11:18:04.167Z,65.02
2019-04-07T11:20:48.862Z,63.70
2019-04-07T11:23:43.354Z,63.59
2019-04-07T11:26:45.926Z,64.30
2019-04-07T11:29:45.596Z,62.13
2019-04-07T11:32:30.759Z,62.55
2019-04-07T11:35:13.765Z,62.64
2019-04-07T11:38:14.687Z,63.79
2019-04-07T11:41:27.221Z,64.75
2019-04-07T11:44:10.486Z,66.70
2019-04-07T11:47:03.771Z,68.72
2019-04-07T11:49:48.522Z,69.54
2019-04-07T11:52:26.656Z,70.16
2019-04-07T11:55:10.156Z,70.24
2019-04-07T11:58:06.672Z,70.52
2019-04-07T12:00:51.402Z,69.58
2019-04-07T12:03:40.574Z,68.98
2019-04-07T12:06:49.911Z,69.21
2019-04-07T12:09:28.371Z,68.73
2019-04-07T12:12:18.237Z,69.43
2019-04-07T12:15:09.554Z,68.70
2019-04-07T12:18:05.209Z,69.88
2019-04-07T12:20:48.313Z,69.48
2019-04-07T12:23:33.658Z,69.81
2019-04-07T12:26:24.782Z,70.14
2019-04-07T12:29:22.251Z,70.49
2019-04-07T12:32:25.985Z,70.98
2019-04-07T12:35:23.565Z,72.12
2019-04-07T12:38:13.567Z,72.21
2019-04-07T12:41:15.029Z,71.57
2019-04-07T12:44:02.811Z,70.36
2019-04-07T12:46:46.424Z,69.96
2019-04-07T12:49:44.473Z,70.68
2019-04-07T12:52:33.485Z,70.84
2019-04-07T12:55:26.900Z,70.27
2019-04-07T12:58:11.658Z,71.66
2019-04-07T13:01:21.161Z,71.19
2019-04-07T13:04:21.038Z,71.21
2019-04-07T13:07:15.103Z,70.14
2019-04-07T13:10:04.587Z,70.29
2019-04-07T13:12:57.958Z,69.89
2019-04-07T13:15:52.045Z,69.67
2019-04-07T13:18:35.603Z,71.80
2019-04-07T13:21:46.680Z,72.36
2019-04-07T13:24:35.646Z,72.19
2019-04-07T13:27:16.843Z,72.42
2019-04-07T13:29:54.241Z,72.33
2019-04-07T13:32:41.630Z,73.01
2019-04-07T13:35:40.629Z,71.94
2019-04-07T13:38:38.296Z,72.97
2019-04-07T13:41:47.579Z,73.06
2019-04-07T13:44:48.390Z,72.79
2019-04-07T13:47:27.027Z,73.24
2019-04-07T13:50:19.798Z,73.56
2019-04-07T13:53:08.972Z,73.75
2019-04-07T13:55:49.767Z,73.11
2019-04-07T13:58:35.070Z,74.20
2019-04-07T14:01:40.769Z,74.56
2019-04-07T14:04:32.948Z,75.26
2019-04-07T14:07:42.736Z,74.63
2019-04-07T14:10:37.246Z,75.09
2019-04-07T14:13:28.266Z,75.08
2019-04-07T14:16:37.711Z,75.37
2019-04-07T14:19:28.870Z,75.55
2019-04-07T14:22:29.715Z,75.80
2019-04-07T14:25:24.585Z,76.35
2019-04-07T14:28:12.991Z,76.43
2019-04-07T14:31:07.611Z,76.48
2019-04-07T14:33:58.927Z,76.45
2019-04-07T14:36:58.960Z,76.17
2019-04-07T14:39:39.344Z,75.94
2019-04-07T14:42:29.438Z,75.98
2019-04-07T14:45:24.911Z,75.55
2019-04-07T14:48:09.836Z,75.76
2019-04-07T14:51:07.234Z,76.16
2019-04-07T14:54:16.413Z,76.88
2019-04-07T14:57:09.058Z,76.98
2019-04-07T14:59:55.397Z,77.45
2019-04-07T15:02:29.101Z,77.43
2019-04-07T15:05:13.723Z,77.51
2019-04-07T15:08:01.285Z,78.30
2019-04-07T15:10:37.800Z,78.56
2019-04-07T15:13:13.073Z,79.14
2019-04-07T15:15:45.050Z,79.21
2019-04-07T15:18:21.451Z,79.44
2019-04-07T15:20:57.312Z,79.60
2019-04-07T15:23:32.283Z,79.74
2019-04-07T15:26:03.819Z,79.69
2019-04-07T15:28:35.803Z,79.63
2019-04-07T15:31:08.576Z,79.64
2019-04-07T15:33:40.987Z,79.30
2019-04-07T15:36:13.026Z,79.22
2019-04-07T15:38:45.558Z,78.88
2019-04-07T15:41:19.082Z,78.81
2019-04-07T15:43:52.253Z,78.62
2019-04-07T15:46:25.697Z,78.73
2019-04-07T15:48:58.312Z,78.86
2019-04-07T15:51:34.127Z,78.91
2019-04-07T15:54:04.400Z,78.94
2019-04-07T15:56:36.834Z,78.72
2019-04-07T15:59:09.904Z,78.59
2019-04-07T16:01:43.084Z,79.00
2019-04-07T16:04:15.988Z,79.05
2019-04-07T16:06:50.308Z,78.92
2019-04-07T16:09:34.624Z,79.15
2019-04-07T16:11:58.861Z,79.08
2019-04-07T16:14:30.974Z,79.50
2019-04-07T16:17:07.284Z,79.82
2019-04-07T16:19:43.081Z,79.96
2019-04-07T16:22:14.563Z,80.05
2019-04-07T16:24:47.544Z,80.21
2019-04-07T16:27:19.744Z,80.42
2019-04-07T16:29:54.760Z,80.41
2019-04-07T16:32:29.111Z,80.56
2019-04-07T16:35:01.721Z,80.57
2019-04-07T16:37:34.804Z,80.70
2019-04-07T16:40:11.454Z,80.94
2019-04-07T16:42:54.546Z,81.43
2019-04-07T16:45:17.961Z,81.76
2019-04-07T16:47:51.548Z,81.97
2019-04-07T16:50:23.672Z,82.23
2019-04-07T16:52:55.893Z,82.44
2019-04-07T16:55:37.359Z,82.41
2019-04-07T16:58:10.310Z,82.65
2019-04-07T17:00:42.935Z,82.83
2019-04-07T17:03:15.450Z,82.73
2019-04-07T17:05:48.588Z,82.52
2019-04-07T17:08:22.474Z,82.27
2019-04-07T17:10:55.852Z,81.98
2019-04-07T17:13:38.149Z,81.27
2019-04-07T17:16:05.815Z,80.91
2019-04-07T17:18:41.186Z,80.64
2019-04-07T17:21:16.077Z,80.33
2019-04-07T17:23:48.564Z,80.59
2019-04-07T17:26:23.360Z,81.23
2019-04-07T17:28:56.982Z,81.78
2019-04-07T17:31:31.162Z,82.09
2019-04-07T17:34:07.374Z,82.33
2019-04-07T17:36:39.252Z,82.60
2019-04-07T17:39:28.651Z,82.92
2019-04-07T17:42:01.517Z,83.28
2019-04-07T17:44:59.330Z,83.58
2019-04-07T17:47:39.212Z,83.72
2019-04-07T17:50:33.755Z,83.96
2019-04-07T17:53:26.502Z,84.20
2019-04-07T17:56:20.918Z,84.26
2019-04-07T17:59:28.188Z,84.16
2019-04-07T18:02:34.918Z,83.92
2019-04-07T18:05:24.254Z,83.31
2019-04-07T18:08:09.202Z,82.96
2019-04-07T18:11:07.599Z,82.76
2019-04-07T18:13:59.693Z,82.63
2019-04-07T18:16:49.317Z,82.47
2019-04-07T18:19:38.862Z,82.32
2019-04-07T18:22:42.319Z,82.08
2019-04-07T18:25:34.064Z,81.83
2019-04-07T18:28:23.019Z,81.87
2019-04-07T18:31:05.344Z,81.67
2019-04-07T18:33:56.992Z,81.83
2019-04-07T18:37:01.986Z,81.88
2019-04-07T18:40:03.155Z,81.82
2019-04-07T18:42:55.751Z,81.74
2019-04-07T18:45:54.809Z,81.73
2019-04-07T18:48:59.168Z,82.02
2019-04-07T18:51:50.629Z,82.45
2019-04-07T18:54:37.697Z,82.54
2019-04-07T18:57:48.820Z,82.54
2019-04-07T19:00:38.109Z,82.85
2019-04-07T19:03:29.684Z,83.12
2019-04-07T19:06:14.824Z,83.07
2019-04-07T19:09:14.180Z,83.05
2019-04-07T19:12:22.720Z,82.96
2019-04-07T19:15:10.535Z,82.85
2019-04-07T19:17:58.926Z,82.79
2019-04-07T19:20:48.893Z,82.85
2019-04-07T19:23:59.125Z,82.88
2019-04-07T19:27:11.857Z,83.06
2019-04-07T19:30:07.082Z,83.37
2019-04-07T19:33:16.535Z,83.65
2019-04-07T19:36:06.220Z,83.94
2019-04-07T19:39:04.818Z,84.05
2019-04-07T19:42:08.788Z,84.25
2019-04-07T19:45:04.622Z,84.41
2019-04-07T19:47:58.183Z,84.51
2019-04-07T19:51:01.227Z,84.65
2019-04-07T19:54:04.423Z,84.57
2019-04-07T19:56:44.148Z,84.54
2019-04-07T19:59:43.073Z,84.33
2019-04-07T20:02:42.532Z,84.29
2019-04-07T20:05:27.953Z,84.23
2019-04-07T20:08:20.674Z,84.23
2019-04-07T20:11:16.189Z,84.13
2019-04-07T20:14:28.431Z,84.12
2019-04-07T20:17:24.447Z,84.14
2019-04-07T20:20:21.672Z,84.03
2019-04-07T20:23:22.915Z,83.99
2019-04-07T20:26:27.059Z,84.05
2019-04-07T20:29:27.989Z,84.00
2019-04-07T20:32:25.193Z,84.07
2019-04-07T20:35:24.791Z,84.27
2019-04-07T20:38:27.262Z,84.49
2019-04-07T20:41:19.585Z,84.71
2019-04-07T20:44:11.687Z,84.89
2019-04-07T20:47:14.241Z,84.83
2019-04-07T20:50:01.339Z,85.01
2019-04-07T20:53:21.772Z,85.21
2019-04-07T20:56:18.648Z,85.12
2019-04-07T20:59:18.850Z,85.09
2019-04-07T21:02:29.361Z,85.06
2019-04-07T21:05:38.989Z,84.99
2019-04-07T21:08:34.200Z,85.10
2019-04-07T21:11:29.071Z,85.10
2019-04-07T21:14:15.967Z,85.08
2019-04-07T21:17:10.804Z,84.95
2019-04-07T21:19:56.273Z,84.72
2019-04-07T21:22:54.006Z,84.69
2019-04-07T21:25:47.936Z,84.76
2019-04-07T21:28:37.812Z,84.88
2019-04-07T21:31:27.031Z,84.90
2019-04-07T21:34:29.572Z,84.94
2019-04-07T21:37:13.908Z,85.01
2019-04-07T21:40:05.385Z,85.15
2019-04-07T21:42:52.087Z,85.09
2019-04-07T21:45:56.522Z,85.22
2019-04-07T21:48:47.477Z,85.37
2019-04-07T21:51:39.872Z,85.46
2019-04-07T21:54:37.277Z,85.53
2019-04-07T21:57:29.179Z,85.51
2019-04-07T22:00:32.879Z,85.42
2019-04-07T22:03:29.013Z,85.48
2019-04-07T22:06:23.195Z,85.45
2019-04-07T22:09:03.100Z,85.52
2019-04-07T22:11:36.765Z,85.38
2019-04-07T22:14:10.426Z,85.28
2019-04-07T22:16:43.455Z,85.40
2019-04-07T22:19:16.674Z,85.63
2019-04-07T22:21:53.270Z,85.68
2019-04-07T22:24:23.144Z,85.64
2019-04-07T22:26:55.477Z,85.63
2019-04-07T22:29:27.403Z,85.59
2019-04-07T22:31:59.825Z,85.60
2019-04-07T22:34:32.655Z,85.54
2019-04-07T22:37:06.853Z,85.36
2019-04-07T22:39:39.716Z,85.15
2019-04-07T22:42:15.196Z,85.02
2019-04-07T22:44:47.375Z,84.92
2019-04-07T22:47:21.124Z,84.75
2019-04-07T22:49:55.302Z,84.40
2019-04-07T22:52:36.230Z,84.06
2019-04-07T22:55:09.783Z,83.73
2019-04-07T22:57:42.993Z,83.58
2019-04-07T23:00:19.749Z,83.59
2019-04-07T23:02:54.126Z,83.52
2019-04-07T23:05:26.430Z,83.52
2019-04-07T23:08:04.058Z,83.49
2019-04-07T23:10:41.004Z,83.06
2019-04-07T23:13:15.396Z,82.78
2019-04-07T23:15:50.276Z,82.36
2019-04-07T23:18:22.948Z,81.92
2019-04-07T23:20:55.634Z,81.37
2019-04-07T23:23:28.194Z,81.18
2019-04-07T23:26:00.652Z,81.14
2019-04-07T23:28:32.739Z,80.69
2019-04-07T23:31:05.708Z,80.16
2019-04-07T23:33:38.256Z,80.16
2019-04-07T23:36:11.546Z,79.83
2019-04-07T23:38:43.708Z,79.86
2019-04-07T23:41:15.930Z,80.03
2019-04-07T23:43:47.941Z,80.19
2019-04-07T23:46:24.735Z,80.38
2019-04-07T23:48:54.792Z,80.22
2019-04-07T23:51:28.723Z,79.94
2019-04-07T23:54:10.906Z,79.98
2019-04-07T23:56:44.801Z,79.61
2019-04-07T23:59:16.998Z,78.99
